createdAt,value
2022-08-07T00:00:15.390Z,98913.72
2022-08-07T00:02:45.825Z,98915.25
2022-08-07T00:05:12.960Z,98916.97
2022-08-07T00:07:41.606Z,98909.81
2022-08-07T00:10:25.960Z,98910.78
2022-08-07T00:12:57.675Z,98910.50
2022-08-07T00:15:35.933Z,98917.22
2022-08-07T00:18:06.228Z,98915.44
2022-08-07T00:20:34.393Z,98913.31
2022-08-07T00:23:03.227Z,98913.19
2022-08-07T00:25:37.550Z,98909.09
2022-08-07T00:28:08.440Z,98913.88
2022-08-07T00:30:37.721Z,98909.50
2022-08-07T00:33:05.298Z,98908.41
2022-08-07T00:35:36.583Z,98902.50
2022-08-07T00:38:04.290Z,98915.97
2022-08-07T00:40:36.620Z,98914.28
2022-08-07T00:43:59.639Z,98909.22
2022-08-07T00:46:01.895Z,98917.50
2022-08-07T00:48:30.939Z,98917.38
2022-08-07T00:51:00.376Z,98922.72
2022-08-07T00:53:39.361Z,98924.69
2022-08-07T00:56:15.882Z,98931.13
2022-08-07T00:58:47.484Z,98925.25
2022-08-07T01:01:20.358Z,98925.09
2022-08-07T01:03:56.903Z,98922.84
2022-08-07T01:06:29.240Z,98926.63
2022-08-07T01:08:58.549Z,98921.72
2022-08-07T01:12:09.722Z,98930.56
2022-08-07T01:14:21.144Z,98925.25
2022-08-07T01:16:56.353Z,98920.47
2022-08-07T01:19:27.029Z,98918.91
2022-08-07T01:21:59.991Z,98912.06
2022-08-07T01:24:35.150Z,98915.84
2022-08-07T01:27:02.813Z,98919.34
2022-08-07T01:29:33.789Z,98906.16
2022-08-07T01:32:05.584Z,98913.88
2022-08-07T01:34:47.413Z,98909.25
2022-08-07T01:37:17.459Z,98904.59
2022-08-07T01:39:47.860Z,98903.78
2022-08-07T01:42:39.874Z,98911.47
2022-08-07T01:45:23.241Z,98914.00
2022-08-07T01:48:19.912Z,98910.50
2022-08-07T01:51:58.560Z,98913.19
2022-08-07T01:54:11.925Z,98906.84
2022-08-07T01:56:55.340Z,98916.38
2022-08-07T01:59:44.049Z,98913.03
2022-08-07T02:03:12.031Z,98905.88
2022-08-07T02:05:48.122Z,98905.88
2022-08-07T02:08:19.797Z,98907.97
2022-08-07T02:10:57.914Z,98911.47
2022-08-07T02:13:56.499Z,98910.63
2022-08-07T02:16:20.115Z,98902.06
2022-08-07T02:18:57.134Z,98906.94
2022-08-07T02:21:27.141Z,98904.03
2022-08-07T02:24:17.852Z,98900.56
2022-08-07T02:26:48.247Z,98899.00
2022-08-07T02:29:17.142Z,98905.00
2022-08-07T02:31:50.705Z,98899.41
2022-08-07T02:34:18.818Z,98894.88
2022-08-07T02:36:52.601Z,98895.69
2022-08-07T02:39:43.457Z,98892.63
2022-08-07T02:42:16.251Z,98889.56
2022-08-07T02:44:49.900Z,98887.19
2022-08-07T02:47:23.624Z,98878.38
2022-08-07T02:49:59.776Z,98880.47
2022-08-07T02:52:44.226Z,98877.97
2022-08-07T02:55:28.422Z,98885.13
2022-08-07T02:58:14.651Z,98874.47
2022-08-07T03:00:47.052Z,98876.16
2022-08-07T03:03:21.219Z,98874.03
2022-08-07T03:05:54.677Z,98881.91
2022-08-07T03:08:27.003Z,98873.91
2022-08-07T03:11:00.334Z,98872.78
2022-08-07T03:13:39.026Z,98866.59
2022-08-07T03:16:17.812Z,98871.50
2022-08-07T03:18:50.653Z,98875.69
2022-08-07T03:21:19.285Z,98868.56
2022-08-07T03:24:20.527Z,98876.84
2022-08-07T03:26:43.054Z,98877.97
2022-08-07T03:29:22.160Z,98880.06
2022-08-07T03:31:51.515Z,98881.91
2022-08-07T03:34:22.867Z,98884.38
2022-08-07T03:36:58.329Z,98883.56
2022-08-07T03:39:59.078Z,98892.69
2022-08-07T03:42:19.001Z,98897.59
2022-08-07T03:44:53.347Z,98891.13
2022-08-07T03:47:28.042Z,98895.31
2022-08-07T03:49:58.524Z,98894.59
2022-08-07T03:52:30.799Z,98895.75
2022-08-07T03:55:06.803Z,98891.38
2022-08-07T03:58:33.924Z,98891.78
2022-08-07T04:00:30.815Z,98891.81
2022-08-07T04:03:04.020Z,98886.47
2022-08-07T04:05:40.901Z,98885.03
2022-08-07T04:08:18.631Z,98888.53
2022-08-07T04:10:54.687Z,98889.06
2022-08-07T04:14:09.279Z,98893.47
2022-08-07T04:16:30.856Z,98891.81
2022-08-07T04:19:03.735Z,98885.47
2022-08-07T04:21:33.369Z,98901.28
2022-08-07T04:24:07.845Z,98896.34
2022-08-07T04:26:40.249Z,98899.59
2022-08-07T04:29:11.141Z,98900.75
2022-08-07T04:32:03.068Z,98908.75
2022-08-07T04:34:33.252Z,98909.47
2022-08-07T04:37:02.148Z,98913.00
2022-08-07T04:39:35.980Z,98918.31
2022-08-07T04:42:05.034Z,98920.56
2022-08-07T04:44:33.455Z,98921.28
2022-08-07T04:47:10.153Z,98915.41
2022-08-07T04:50:05.460Z,98927.88
2022-08-07T04:53:27.791Z,98919.75
2022-08-07T04:58:10.348Z,98916.66
2022-08-07T05:00:12.442Z,98911.91
2022-08-07T05:02:24.295Z,98917.81
2022-08-07T05:05:52.790Z,98919.75
2022-08-07T05:08:59.895Z,98917.22
2022-08-07T05:11:58.109Z,98917.81
2022-08-07T05:14:56.261Z,98915.03
2022-08-07T05:17:52.019Z,98910.91
2022-08-07T05:20:21.350Z,98907.38
2022-08-07T05:22:52.021Z,98902.47
2022-08-07T05:25:26.249Z,98900.09
2022-08-07T05:28:19.985Z,98901.63
2022-08-07T05:30:53.354Z,98906.31
2022-08-07T05:33:21.946Z,98902.47
2022-08-07T05:35:53.657Z,98909.41
2022-08-07T05:39:00.866Z,98911.50
2022-08-07T05:41:15.628Z,98918.13
2022-08-07T05:44:08.596Z,98920.69
2022-08-07T05:46:36.398Z,98913.00
2022-08-07T05:49:12.145Z,98912.19
2022-08-07T05:51:46.559Z,98918.16
2022-08-07T05:54:30.928Z,98917.09
2022-08-07T05:57:07.050Z,98912.38
2022-08-07T05:59:55.904Z,98918.91
2022-08-07T06:02:30.762Z,98913.50
2022-08-07T06:05:10.951Z,98925.69
2022-08-07T06:08:29.589Z,98924.25
2022-08-07T06:13:02.209Z,98929.50
2022-08-07T06:15:42.469Z,98924.72
2022-08-07T06:18:14.350Z,98932.47
2022-08-07T06:20:50.404Z,98923.97
2022-08-07T06:24:38.061Z,98917.38
2022-08-07T06:26:22.149Z,98926.97
2022-08-07T06:28:59.017Z,98923.56
2022-08-07T06:31:38.550Z,98917.78
2022-08-07T06:34:16.101Z,98915.94
2022-08-07T06:36:47.251Z,98916.38
2022-08-07T06:40:17.527Z,98911.97
2022-08-07T06:42:13.571Z,98908.06
2022-08-07T06:44:52.952Z,98905.69
2022-08-07T06:47:21.898Z,98897.59
2022-08-07T06:49:58.564Z,98892.63
2022-08-07T06:52:36.969Z,98888.09
2022-08-07T06:55:33.879Z,98904.78
2022-08-07T06:58:13.277Z,98894.88
2022-08-07T07:00:55.803Z,98892.41
2022-08-07T07:03:39.779Z,98894.50
2022-08-07T07:06:12.958Z,98901.06
2022-08-07T07:08:46.811Z,98893.31
2022-08-07T07:12:06.739Z,98889.56
2022-08-07T07:14:02.841Z,98897.69
2022-08-07T07:16:45.163Z,98893.91
2022-08-07T07:19:57.330Z,98887.22
2022-08-07T07:22:36.138Z,98894.44
2022-08-07T07:26:31.330Z,98900.59
2022-08-07T07:29:23.493Z,98901.94
2022-08-07T07:31:46.816Z,98904.41
2022-08-07T07:34:20.215Z,98893.94
2022-08-07T07:36:52.703Z,98896.34
2022-08-07T07:39:25.656Z,98893.94
2022-08-07T07:42:13.362Z,98898.53
2022-08-07T07:44:49.473Z,98897.69
2022-08-07T07:47:23.912Z,98892.22
2022-08-07T07:50:33.456Z,98886.00
2022-08-07T07:52:44.159Z,98889.13
2022-08-07T07:55:15.903Z,98887.66
2022-08-07T07:57:53.149Z,98887.03
2022-08-07T08:00:31.279Z,98879.56
2022-08-07T08:03:16.693Z,98880.81
2022-08-07T08:05:59.066Z,98883.09
2022-08-07T08:08:35.985Z,98878.50
2022-08-07T08:11:13.846Z,98875.59
2022-08-07T08:13:54.521Z,98867.19
2022-08-07T08:16:37.093Z,98870.13
2022-08-07T08:19:09.897Z,98868.13
2022-08-07T08:22:08.139Z,98865.28
2022-08-07T08:25:18.452Z,98866.03
2022-08-07T08:27:56.302Z,98861.28
2022-08-07T08:30:27.865Z,98861.06
2022-08-07T08:33:01.825Z,98857.88
2022-08-07T08:35:39.427Z,98862.75
2022-08-07T08:38:19.811Z,98862.16
2022-08-07T08:40:58.561Z,98866.28
2022-08-07T08:43:42.804Z,98875.09
2022-08-07T08:46:55.326Z,98858.19
2022-08-07T08:50:02.517Z,98859.03
2022-08-07T08:53:38.832Z,98858.16
2022-08-07T08:56:17.419Z,98866.88
2022-08-07T08:59:06.636Z,98860.59
2022-08-07T09:01:46.514Z,98860.28
2022-08-07T09:04:40.419Z,98857.78
2022-08-07T09:07:46.490Z,98856.81
2022-08-07T09:10:37.858Z,98852.81
2022-08-07T09:13:37.832Z,98857.25
2022-08-07T09:16:22.695Z,98847.41
2022-08-07T09:19:51.773Z,98855.53
2022-08-07T09:24:53.853Z,98854.13
2022-08-07T09:26:13.564Z,98846.56
2022-08-07T09:30:01.625Z,98850.34
2022-08-07T09:32:28.986Z,98839.28
2022-08-07T09:36:04.929Z,98847.47
2022-08-07T09:38:39.368Z,98857.56
2022-08-07T09:41:22.656Z,98862.59
2022-08-07T09:44:32.982Z,98850.09
2022-08-07T09:47:55.861Z,98839.50
2022-08-07T09:50:34.319Z,98842.59
2022-08-07T09:53:05.339Z,98845.31
2022-08-07T09:56:04.036Z,98839.13
2022-08-07T09:59:24.871Z,98829.81
2022-08-07T10:02:20.021Z,98829.06
2022-08-07T10:04:53.469Z,98816.38
2022-08-07T10:07:52.845Z,98809.06
2022-08-07T10:11:16.429Z,98804.44
2022-08-07T10:14:00.458Z,98804.44
2022-08-07T10:17:14.406Z,98797.91
2022-08-07T10:19:55.576Z,98797.03
2022-08-07T10:22:36.799Z,98796.66
2022-08-07T10:25:24.984Z,98791.69
2022-08-07T10:28:20.013Z,98776.53
2022-08-07T10:31:15.228Z,98780.97
2022-08-07T10:34:06.748Z,98782.53
2022-08-07T10:36:59.724Z,98778.25
2022-08-07T10:40:05.737Z,98772.50
2022-08-07T10:43:01.389Z,98767.16
2022-08-07T10:45:44.420Z,98766.22
2022-08-07T10:49:10.195Z,98768.19
2022-08-07T10:52:02.352Z,98763.34
2022-08-07T10:54:53.157Z,98759.53
2022-08-07T10:58:04.344Z,98755.84
2022-08-07T11:00:50.425Z,98754.19
2022-08-07T11:03:52.589Z,98761.78
2022-08-07T11:06:45.019Z,98739.03
2022-08-07T11:10:10.185Z,98743.13
2022-08-07T11:12:35.167Z,98736.88
2022-08-07T11:15:17.333Z,98728.47
2022-08-07T11:17:56.676Z,98726.78
2022-08-07T11:20:57.100Z,98722.25
2022-08-07T11:24:03.715Z,98719.44
2022-08-07T11:26:57.754Z,98716.34
2022-08-07T11:29:48.148Z,98722.34
2022-08-07T11:32:25.822Z,98718.41
2022-08-07T11:34:55.657Z,98717.22
2022-08-07T11:37:58.327Z,98714.19
2022-08-07T11:41:03.264Z,98712.28
2022-08-07T11:44:10.749Z,98701.59
2022-08-07T11:47:07.771Z,98691.38
2022-08-07T11:50:32.437Z,98695.19
2022-08-07T11:53:35.213Z,98699.66
2022-08-07T11:56:40.267Z,98699.66
2022-08-07T12:00:12.422Z,98704.56
2022-08-07T12:03:42.252Z,98696.19
2022-08-07T12:06:39.774Z,98695.25
2022-08-07T12:09:16.032Z,98695.69
2022-08-07T12:12:09.161Z,98682.09
2022-08-07T12:15:05.403Z,98687.03
2022-08-07T12:17:58.749Z,98678.25
2022-08-07T12:20:51.980Z,98690.28
2022-08-07T12:24:06.083Z,98668.69
2022-08-07T12:26:29.733Z,98673.47
2022-08-07T12:29:38.846Z,98665.91
2022-08-07T12:32:28.078Z,98671.38
2022-08-07T12:34:56.552Z,98664.53
2022-08-07T12:37:28.611Z,98664.34
2022-08-07T12:40:44.967Z,98670.03
2022-08-07T12:43:09.586Z,98648.91
2022-08-07T12:46:01.192Z,98665.47
2022-08-07T12:48:52.988Z,98658.94
2022-08-07T12:51:33.142Z,98658.50
2022-08-07T12:54:37.458Z,98650.63
2022-08-07T12:57:09.426Z,98651.03
2022-08-07T12:59:54.196Z,98653.66
2022-08-07T13:02:49.491Z,98643.34
2022-08-07T13:06:04.695Z,98634.56
2022-08-07T13:10:19.633Z,98637.19
2022-08-07T13:12:54.150Z,98641.56
2022-08-07T13:15:31.984Z,98648.53
2022-08-07T13:18:25.775Z,98640.44
2022-08-07T13:21:23.568Z,98649.91
2022-08-07T13:24:20.352Z,98632.69
2022-08-07T13:27:15.683Z,98644.94
2022-08-07T13:30:06.460Z,98623.09
2022-08-07T13:32:55.470Z,98625.19
2022-08-07T13:36:00.499Z,98616.91
2022-08-07T13:39:01.368Z,98616.88
2022-08-07T13:41:47.308Z,98616.56
2022-08-07T13:44:25.813Z,98621.56
2022-08-07T13:46:59.482Z,98617.66
2022-08-07T13:50:33.176Z,98612.56
2022-08-07T13:52:32.335Z,98603.34
2022-08-07T13:55:26.300Z,98598.63
2022-08-07T13:58:27.933Z,98589.53
2022-08-07T14:01:12.668Z,98587.81
2022-08-07T14:04:05.403Z,98585.97
2022-08-07T14:06:39.452Z,98588.00
2022-08-07T14:09:17.188Z,98582.16
2022-08-07T14:12:04.903Z,98578.63
2022-08-07T14:14:45.129Z,98589.66
2022-08-07T14:18:13.003Z,98586.19
2022-08-07T14:20:40.914Z,98583.09
2022-08-07T14:23:31.539Z,98584.63
2022-08-07T14:26:28.153Z,98571.16
2022-08-07T14:29:05.893Z,98572.44
2022-08-07T14:31:55.997Z,98565.56
2022-08-07T14:34:29.653Z,98566.91
2022-08-07T14:37:01.748Z,98565.91
2022-08-07T14:40:17.169Z,98568.81
2022-08-07T14:42:32.212Z,98569.56
2022-08-07T14:45:21.547Z,98562.56
2022-08-07T14:47:51.259Z,98576.06
2022-08-07T14:50:28.262Z,98575.50
2022-08-07T14:52:57.042Z,98568.00
2022-08-07T14:55:39.326Z,98568.19
2022-08-07T14:58:32.372Z,98571.03
2022-08-07T15:01:21.873Z,98561.72
2022-08-07T15:03:52.184Z,98560.09
2022-08-07T15:06:26.039Z,98563.56
2022-08-07T15:14:57.870Z,98564.88
2022-08-07T15:25:14.676Z,98561.19
2022-08-07T15:26:22.649Z,98571.56
2022-08-07T15:32:01.553Z,98554.13
2022-08-07T15:35:02.922Z,98552.81
2022-08-07T15:38:04.704Z,98557.28
2022-08-07T15:40:34.228Z,98551.13
2022-08-07T15:43:53.823Z,98553.59
2022-08-07T15:49:13.230Z,98553.72
2022-08-07T15:54:39.452Z,98559.69
2022-08-07T15:57:28.159Z,98550.13
2022-08-07T16:00:06.380Z,98551.44
2022-08-07T16:02:46.576Z,98546.69
2022-08-07T16:05:19.633Z,98547.25
2022-08-07T16:08:31.347Z,98552.88
2022-08-07T16:10:48.780Z,98549.06
2022-08-07T16:13:59.023Z,98547.34
2022-08-07T16:16:47.643Z,98542.59
2022-08-07T16:20:33.406Z,98542.13
2022-08-07T16:23:58.533Z,98542.75
2022-08-07T16:26:30.972Z,98550.50
2022-08-07T16:30:11.522Z,98546.91
2022-08-07T16:32:32.764Z,98545.53
2022-08-07T16:35:56.331Z,98539.81
2022-08-07T16:39:00.985Z,98533.13
2022-08-07T16:41:56.112Z,98536.03
2022-08-07T16:45:24.660Z,98541.50
2022-08-07T16:48:53.862Z,98547.81
2022-08-07T16:52:35.409Z,98548.69
2022-08-07T16:55:14.774Z,98546.81
2022-08-07T16:58:08.189Z,98543.06
2022-08-07T17:00:44.736Z,98546.59
2022-08-07T17:03:17.089Z,98544.75
2022-08-07T17:06:31.429Z,98537.66
2022-08-07T17:10:05.901Z,98536.22
2022-08-07T17:13:24.458Z,98535.03
2022-08-07T17:16:34.646Z,98539.63
2022-08-07T17:20:02.935Z,98548.16
2022-08-07T17:22:37.847Z,98546.50
2022-08-07T17:25:15.404Z,98540.50
2022-08-07T17:28:13.430Z,98542.59
2022-08-07T17:31:16.079Z,98542.22
2022-08-07T17:34:33.363Z,98546.00
2022-08-07T17:38:05.803Z,98547.47
2022-08-07T17:40:34.258Z,98552.91
2022-08-07T17:44:01.654Z,98562.72
2022-08-07T17:46:42.386Z,98559.00
2022-08-07T17:49:44.803Z,98561.69
2022-08-07T17:52:30.805Z,98558.63
2022-08-07T17:56:01.305Z,98559.44
2022-08-07T17:58:59.702Z,98557.59
2022-08-07T18:01:48.419Z,98562.41
2022-08-07T18:04:49.238Z,98564.31
2022-08-07T18:07:34.361Z,98560.78
2022-08-07T18:10:39.088Z,98572.22
2022-08-07T18:13:45.766Z,98570.72
2022-08-07T18:16:33.347Z,98563.06
2022-08-07T18:21:10.624Z,98562.63
2022-08-07T18:22:26.497Z,98566.75
2022-08-07T18:25:19.309Z,98573.81
2022-08-07T18:28:35.269Z,98584.53
2022-08-07T18:31:26.461Z,98579.28
2022-08-07T18:34:37.901Z,98582.34
2022-08-07T18:37:15.049Z,98595.19
2022-08-07T18:40:42.716Z,98594.72
2022-08-07T18:43:48.893Z,98598.84
2022-08-07T18:46:58.252Z,98607.06
2022-08-07T18:50:40.867Z,98604.03
2022-08-07T18:53:55.498Z,98621.16
2022-08-07T18:56:58.289Z,98626.06
2022-08-07T18:59:59.119Z,98623.88
2022-08-07T19:02:56.479Z,98628.78
2022-08-07T19:06:03.407Z,98627.03
2022-08-07T19:09:09.477Z,98633.66
2022-08-07T19:12:13.407Z,98643.03
2022-08-07T19:15:01.742Z,98642.25
2022-08-07T19:17:59.231Z,98648.53
2022-08-07T19:21:09.274Z,98652.91
2022-08-07T19:23:59.111Z,98662.16
2022-08-07T19:26:55.515Z,98669.19
2022-08-07T19:30:57.803Z,98668.97
2022-08-07T19:32:44.069Z,98665.16
2022-08-07T19:35:19.593Z,98668.81
2022-08-07T19:37:58.237Z,98667.16
2022-08-07T19:40:31.267Z,98672.66
2022-08-07T19:43:09.173Z,98679.31
2022-08-07T19:46:08.255Z,98673.59
2022-08-07T19:48:43.916Z,98677.94
2022-08-07T19:51:19.570Z,98682.56
2022-08-07T19:54:31.283Z,98668.28
2022-08-07T19:57:52.390Z,98669.72
2022-08-07T19:59:40.929Z,98661.31
2022-08-07T20:02:19.840Z,98674.31
2022-08-07T20:04:50.205Z,98666.66
2022-08-07T20:07:45.604Z,98662.66
2022-08-07T20:10:37.126Z,98663.38
2022-08-07T20:13:27.030Z,98665.38
2022-08-07T20:16:01.361Z,98673.69
2022-08-07T20:18:32.867Z,98667.03
2022-08-07T20:21:03.917Z,98674.25
2022-08-07T20:24:00.703Z,98665.41
2022-08-07T20:26:45.219Z,98667.81
2022-08-07T20:29:48.883Z,98674.56
2022-08-07T20:32:40.744Z,98663.84
2022-08-07T20:35:15.813Z,98664.66
2022-08-07T20:37:59.059Z,98661.28
2022-08-07T20:40:32.666Z,98665.81
2022-08-07T20:43:03.009Z,98664.63
2022-08-07T20:46:28.477Z,98662.00
2022-08-07T20:48:29.697Z,98657.97
2022-08-07T20:51:04.716Z,98670.03
2022-08-07T20:54:03.462Z,98669.38
2022-08-07T20:56:29.376Z,98665.50
2022-08-07T20:59:01.764Z,98667.81
2022-08-07T21:01:45.554Z,98668.84
2022-08-07T21:04:21.919Z,98658.97
2022-08-07T21:06:53.620Z,98667.03
2022-08-07T21:09:24.394Z,98671.69
2022-08-07T21:11:57.631Z,98667.78
2022-08-07T21:14:36.724Z,98670.22
2022-08-07T21:18:01.772Z,98676.50
2022-08-07T21:20:04.595Z,98673.41
2022-08-07T21:22:44.714Z,98670.88
2022-08-07T21:25:29.040Z,98667.44
2022-08-07T21:28:49.268Z,98676.41
2022-08-07T21:32:42.293Z,98673.88
2022-08-07T21:34:59.624Z,98665.22
2022-08-07T21:37:58.079Z,98666.53
2022-08-07T21:41:10.171Z,98671.34
2022-08-07T21:43:57.400Z,98674.09
2022-08-07T21:46:49.594Z,98671.94
2022-08-07T21:50:01.113Z,98672.63
2022-08-07T21:53:00.008Z,98676.19
2022-08-07T21:55:52.218Z,98681.38
2022-08-07T21:58:32.204Z,98683.84
2022-08-07T22:02:07.155Z,98687.53
2022-08-07T22:04:31.937Z,98688.81
2022-08-07T22:07:06.735Z,98697.00
2022-08-07T22:09:53.726Z,98700.56
2022-08-07T22:12:31.467Z,98693.44
2022-08-07T22:16:39.028Z,98697.81
2022-08-07T22:19:07.577Z,98702.81
2022-08-07T22:22:17.773Z,98707.09
2022-08-07T22:25:13.249Z,98698.97
2022-08-07T22:28:07.529Z,98702.22
2022-08-07T22:31:59.461Z,98709.13
2022-08-07T22:34:15.794Z,98712.50
2022-08-07T22:36:54.160Z,98714.91
2022-08-07T22:39:53.602Z,98704.53
2022-08-07T22:42:53.954Z,98708.84
2022-08-07T22:46:04.461Z,98703.88
2022-08-07T22:48:13.569Z,98700.91
2022-08-07T22:51:06.512Z,98704.84
2022-08-07T22:54:06.453Z,98713.94
2022-08-07T22:56:56.889Z,98725.28
2022-08-07T22:59:58.946Z,98711.44
2022-08-07T23:02:50.287Z,98713.50
2022-08-07T23:06:10.075Z,98711.63
2022-08-07T23:10:05.147Z,98716.00
2022-08-07T23:12:49.754Z,98722.81
2022-08-07T23:16:06.869Z,98717.50
2022-08-07T23:19:16.357Z,98720.38
2022-08-07T23:22:34.047Z,98709.91
2022-08-07T23:25:56.511Z,98722.72
2022-08-07T23:29:02.394Z,98722.44
2022-08-07T23:34:23.019Z,98721.16
2022-08-07T23:35:07.884Z,98728.72
2022-08-07T23:38:19.070Z,98727.28
2022-08-07T23:41:11.336Z,98722.34
2022-08-07T23:44:29.298Z,98727.06
2022-08-07T23:47:42.313Z,98712.94
2022-08-07T23:50:33.547Z,98703.88
2022-08-07T23:53:17.284Z,98709.19
2022-08-07T23:56:20.914Z,98715.47
2022-08-07T23:58:51.010Z,98713.84
